sensor_id;sensor_type;location;lat;lon;timestamp;pressure;altitude;pressure_sealevel;temperature;humidity
36190;BME280;22232;50.914;13.858;2022-12-10T00:01:39;96768.59;;;-0.71;100.00
36190;BME280;22232;50.914;13.858;2022-12-10T00:04:08;96766.72;;;-0.92;100.00
36190;BME280;22232;50.914;13.858;2022-12-10T00:06:36;96757.63;;;-0.96;100.00
36190;BME280;22232;50.914;13.858;2022-12-10T00:09:06;96768.53;;;-0.92;100.00
36190;BME280;22232;50.914;13.858;2022-12-10T00:11:34;96771.16;;;-0.92;100.00
36190;BME280;22232;50.914;13.858;2022-12-10T00:14:02;96768.31;;;-0.97;100.00
36190;BME280;22232;50.914;13.858;2022-12-10T00:16:30;96763.13;;;-0.90;100.00
36190;BME280;22232;50.914;13.858;2022-12-10T00:18:58;96765.69;;;-0.97;100.00
36190;BME280;22232;50.914;13.858;2022-12-10T00:21:28;96760.44;;;-0.97;100.00
36190;BME280;22232;50.914;13.858;2022-12-10T00:23:56;96767.47;;;-0.98;100.00
36190;BME280;22232;50.914;13.858;2022-12-10T00:26:30;96768.91;;;-0.95;100.00
36190;BME280;22232;50.914;13.858;2022-12-10T00:29:00;96762.50;;;-0.93;100.00
36190;BME280;22232;50.914;13.858;2022-12-10T00:31:31;96768.00;;;-0.87;100.00
36190;BME280;22232;50.914;13.858;2022-12-10T00:34:02;96766.72;;;-0.92;100.00
36190;BME280;22232;50.914;13.858;2022-12-10T00:36:36;96762.34;;;-0.91;100.00
36190;BME280;22232;50.914;13.858;2022-12-10T00:39:05;96778.03;;;-0.91;100.00
36190;BME280;22232;50.914;13.858;2022-12-10T00:41:32;96780.81;;;-0.93;100.00
36190;BME280;22232;50.914;13.858;2022-12-10T00:44:00;96779.13;;;-1.00;100.00
36190;BME280;22232;50.914;13.858;2022-12-10T00:46:28;96772.25;;;-1.01;100.00
36190;BME280;22232;50.914;13.858;2022-12-10T00:48:58;96778.59;;;-1.10;100.00
36190;BME280;22232;50.914;13.858;2022-12-10T00:51:26;96779.22;;;-1.08;100.00
36190;BME280;22232;50.914;13.858;2022-12-10T00:53:56;96773.63;;;-1.05;100.00
36190;BME280;22232;50.914;13.858;2022-12-10T00:56:27;96777.31;;;-1.00;100.00
36190;BME280;22232;50.914;13.858;2022-12-10T00:58:55;96777.94;;;-0.98;100.00
36190;BME280;22232;50.914;13.858;2022-12-10T01:01:27;96781.56;;;-0.99;100.00
36190;BME280;22232;50.914;13.858;2022-12-10T01:04:00;96781.22;;;-1.10;100.00
36190;BME280;22232;50.914;13.858;2022-12-10T01:06:33;96780.97;;;-1.16;100.00
36190;BME280;22232;50.914;13.858;2022-12-10T01:09:04;96777.72;;;-1.18;100.00
36190;BME280;22232;50.914;13.858;2022-12-10T01:11:36;96787.00;;;-1.15;100.00
36190;BME280;22232;50.914;13.858;2022-12-10T01:14:09;96787.53;;;-1.20;100.00
36190;BME280;22232;50.914;13.858;2022-12-10T01:16:37;96785.19;;;-1.14;100.00
36190;BME280;22232;50.914;13.858;2022-12-10T01:19:05;96787.38;;;-1.18;100.00
36190;BME280;22232;50.914;13.858;2022-12-10T01:21:34;96786.28;;;-1.09;100.00
36190;BME280;22232;50.914;13.858;2022-12-10T01:24:02;96787.09;;;-1.08;100.00
36190;BME280;22232;50.914;13.858;2022-12-10T01:26:32;96786.50;;;-1.04;100.00
36190;BME280;22232;50.914;13.858;2022-12-10T01:29:02;96788.78;;;-1.01;100.00
36190;BME280;22232;50.914;13.858;2022-12-10T01:31:33;96799.00;;;-1.06;100.00
36190;BME280;22232;50.914;13.858;2022-12-10T01:34:01;96788.25;;;-1.11;100.00
36190;BME280;22232;50.914;13.858;2022-12-10T01:36:37;96795.09;;;-1.10;100.00
36190;BME280;22232;50.914;13.858;2022-12-10T01:39:08;96797.47;;;-1.15;100.00
36190;BME280;22232;50.914;13.858;2022-12-10T01:41:59;96795.75;;;-1.08;100.00
36190;BME280;22232;50.914;13.858;2022-12-10T01:46:57;96800.53;;;-1.11;100.00
36190;BME280;22232;50.914;13.858;2022-12-10T01:49:36;96805.56;;;-1.10;100.00
36190;BME280;22232;50.914;13.858;2022-12-10T01:52:07;96805.75;;;-1.11;100.00
36190;BME280;22232;50.914;13.858;2022-12-10T01:54:38;96801.91;;;-1.16;100.00
36190;BME280;22232;50.914;13.858;2022-12-10T01:57:10;96799.53;;;-1.10;100.00
36190;BME280;22232;50.914;13.858;2022-12-10T01:59:40;96795.03;;;-1.17;100.00
36190;BME280;22232;50.914;13.858;2022-12-10T02:02:16;96796.03;;;-1.18;100.00
36190;BME280;22232;50.914;13.858;2022-12-10T02:07:49;96794.56;;;-1.20;100.00
36190;BME280;22232;50.914;13.858;2022-12-10T02:10:40;96796.91;;;-1.10;100.00
36190;BME280;22232;50.914;13.858;2022-12-10T02:15:51;96795.22;;;-1.03;100.00
36190;BME280;22232;50.914;13.858;2022-12-10T02:18:27;96794.22;;;-1.17;100.00
36190;BME280;22232;50.914;13.858;2022-12-10T02:20:58;96785.84;;;-1.12;100.00
36190;BME280;22232;50.914;13.858;2022-12-10T02:23:32;96786.63;;;-1.12;100.00
36190;BME280;22232;50.914;13.858;2022-12-10T02:29:19;96788.81;;;-1.16;100.00
36190;BME280;22232;50.914;13.858;2022-12-10T02:31:55;96791.88;;;-1.12;100.00
36190;BME280;22232;50.914;13.858;2022-12-10T02:34:27;96786.28;;;-1.09;100.00
36190;BME280;22232;50.914;13.858;2022-12-10T02:36:59;96789.88;;;-1.10;100.00
36190;BME280;22232;50.914;13.858;2022-12-10T02:39:33;96796.28;;;-1.12;100.00
36190;BME280;22232;50.914;13.858;2022-12-10T02:42:05;96796.09;;;-1.11;100.00
36190;BME280;22232;50.914;13.858;2022-12-10T02:44:36;96797.03;;;-1.19;100.00
36190;BME280;22232;50.914;13.858;2022-12-10T02:47:07;96788.69;;;-1.22;100.00
36190;BME280;22232;50.914;13.858;2022-12-10T02:49:40;96789.69;;;-1.23;100.00
36190;BME280;22232;50.914;13.858;2022-12-10T02:52:12;96788.25;;;-1.26;100.00
36190;BME280;22232;50.914;13.858;2022-12-10T02:54:46;96787.66;;;-1.28;100.00
36190;BME280;22232;50.914;13.858;2022-12-10T02:57:27;96793.31;;;-1.24;100.00
36190;BME280;22232;50.914;13.858;2022-12-10T03:00:09;96794.78;;;-1.22;100.00
36190;BME280;22232;50.914;13.858;2022-12-10T03:03:03;96789.41;;;-1.28;100.00
36190;BME280;22232;50.914;13.858;2022-12-10T03:05:47;96804.69;;;-1.17;100.00
36190;BME280;22232;50.914;13.858;2022-12-10T03:08:23;96810.63;;;-1.23;100.00
36190;BME280;22232;50.914;13.858;2022-12-10T03:10:57;96804.97;;;-1.27;100.00
36190;BME280;22232;50.914;13.858;2022-12-10T03:13:29;96815.06;;;-1.24;100.00
36190;BME280;22232;50.914;13.858;2022-12-10T03:16:01;96819.66;;;-1.26;100.00
36190;BME280;22232;50.914;13.858;2022-12-10T03:18:31;96816.41;;;-1.28;100.00
36190;BME280;22232;50.914;13.858;2022-12-10T03:21:04;96817.47;;;-1.22;100.00
36190;BME280;22232;50.914;13.858;2022-12-10T03:23:36;96816.31;;;-1.20;100.00
36190;BME280;22232;50.914;13.858;2022-12-10T03:26:08;96814.63;;;-1.12;100.00
36190;BME280;22232;50.914;13.858;2022-12-10T03:28:40;96824.44;;;-1.14;100.00
36190;BME280;22232;50.914;13.858;2022-12-10T03:31:10;96821.00;;;-1.15;100.00
36190;BME280;22232;50.914;13.858;2022-12-10T03:33:40;96824.25;;;-1.13;100.00
36190;BME280;22232;50.914;13.858;2022-12-10T03:36:08;96828.06;;;-1.16;100.00
36190;BME280;22232;50.914;13.858;2022-12-10T03:38:36;96825.53;;;-1.24;100.00
36190;BME280;22232;50.914;13.858;2022-12-10T03:41:04;96830.56;;;-1.22;100.00
36190;BME280;22232;50.914;13.858;2022-12-10T03:43:32;96828.06;;;-1.30;100.00
36190;BME280;22232;50.914;13.858;2022-12-10T03:45:59;96827.78;;;-1.21;100.00
36190;BME280;22232;50.914;13.858;2022-12-10T03:48:27;96823.06;;;-1.25;100.00
36190;BME280;22232;50.914;13.858;2022-12-10T03:50:54;96814.69;;;-1.21;100.00
36190;BME280;22232;50.914;13.858;2022-12-10T03:53:22;96815.06;;;-1.24;100.00
36190;BME280;22232;50.914;13.858;2022-12-10T03:55:49;96821.47;;;-1.26;100.00
36190;BME280;22232;50.914;13.858;2022-12-10T03:58:17;96816.50;;;-1.21;100.00
36190;BME280;22232;50.914;13.858;2022-12-10T04:00:46;96818.03;;;-1.27;100.00
36190;BME280;22232;50.914;13.858;2022-12-10T04:03:14;96815.06;;;-1.24;100.00
36190;BME280;22232;50.914;13.858;2022-12-10T04:05:41;96818.31;;;-1.22;100.00
36190;BME280;22232;50.914;13.858;2022-12-10T04:08:09;96812.53;;;-1.32;100.00
36190;BME280;22232;50.914;13.858;2022-12-10T04:10:38;96811.00;;;-1.26;100.00
36190;BME280;22232;50.914;13.858;2022-12-10T04:13:05;96814.41;;;-1.26;100.00
36190;BME280;22232;50.914;13.858;2022-12-10T04:15:52;96818.19;;;-1.28;100.00
36190;BME280;22232;50.914;13.858;2022-12-10T04:18:38;96815.94;;;-1.31;100.00
36190;BME280;22232;50.914;13.858;2022-12-10T04:21:06;96815.94;;;-1.31;100.00
36190;BME280;22232;50.914;13.858;2022-12-10T04:23:52;96817.94;;;-1.33;100.00
36190;BME280;22232;50.914;13.858;2022-12-10T04:26:38;96812.53;;;-1.32;100.00
36190;BME280;22232;50.914;13.858;2022-12-10T04:29:23;96813.16;;;-1.30;100.00
36190;BME280;22232;50.914;13.858;2022-12-10T04:31:51;96813.97;;;-1.29;100.00
36190;BME280;22232;50.914;13.858;2022-12-10T04:34:19;96813.16;;;-1.30;100.00
36190;BME280;22232;50.914;13.858;2022-12-10T04:36:47;96810.56;;;-1.30;100.00
36190;BME280;22232;50.914;13.858;2022-12-10T04:39:15;96806.31;;;-1.31;100.00
36190;BME280;22232;50.914;13.858;2022-12-10T04:41:46;96808.38;;;-1.26;100.00
36190;BME280;22232;50.914;13.858;2022-12-10T04:44:14;96805.41;;;-1.23;100.00
36190;BME280;22232;50.914;13.858;2022-12-10T04:46:41;96806.22;;;-1.23;100.00
36190;BME280;22232;50.914;13.858;2022-12-10T04:49:09;96805.59;;;-1.25;100.00
36190;BME280;22232;50.914;13.858;2022-12-10T04:51:37;96799.16;;;-1.22;100.00
36190;BME280;22232;50.914;13.858;2022-12-10T04:54:05;96796.91;;;-1.25;100.00
36190;BME280;22232;50.914;13.858;2022-12-10T04:56:33;96793.94;;;-1.22;100.00
36190;BME280;22232;50.914;13.858;2022-12-10T04:59:02;96794.03;;;-1.30;100.00
36190;BME280;22232;50.914;13.858;2022-12-10T05:01:30;96790.25;;;-1.28;100.00
36190;BME280;22232;50.914;13.858;2022-12-10T05:04:03;96794.13;;;-1.24;100.00
36190;BME280;22232;50.914;13.858;2022-12-10T05:06:33;96788.25;;;-1.26;100.00
36190;BME280;22232;50.914;13.858;2022-12-10T05:09:01;96796.19;;;-1.34;100.00
36190;BME280;22232;50.914;13.858;2022-12-10T05:11:30;96791.59;;;-1.32;100.00
36190;BME280;22232;50.914;13.858;2022-12-10T05:13:58;96796.53;;;-1.37;100.00
36190;BME280;22232;50.914;13.858;2022-12-10T05:16:28;96782.13;;;-1.33;100.00
36190;BME280;22232;50.914;13.858;2022-12-10T05:18:56;96792.75;;;-1.34;100.00
36190;BME280;22232;50.914;13.858;2022-12-10T05:25:30;96798.13;;;-1.28;100.00
36190;BME280;22232;50.914;13.858;2022-12-10T05:27:58;96793.69;;;-1.27;100.00
36190;BME280;22232;50.914;13.858;2022-12-10T05:30:25;96785.56;;;-1.32;100.00
36190;BME280;22232;50.914;13.858;2022-12-10T05:32:53;96798.81;;;-1.34;100.00
36190;BME280;22232;50.914;13.858;2022-12-10T05:35:20;96798.81;;;-1.34;100.00
36190;BME280;22232;50.914;13.858;2022-12-10T05:37:48;96804.03;;;-1.34;100.00
36190;BME280;22232;50.914;13.858;2022-12-10T05:40:15;96797.03;;;-1.33;100.00
36190;BME280;22232;50.914;13.858;2022-12-10T05:42:44;96807.84;;;-1.36;100.00
36190;BME280;22232;50.914;13.858;2022-12-10T05:45:11;96802.78;;;-1.38;100.00
36190;BME280;22232;50.914;13.858;2022-12-10T05:47:39;96803.94;;;-1.41;100.00
36190;BME280;22232;50.914;13.858;2022-12-10T05:50:06;96804.03;;;-1.34;100.00
36190;BME280;22232;50.914;13.858;2022-12-10T05:52:34;96812.25;;;-1.37;100.00
36190;BME280;22232;50.914;13.858;2022-12-10T05:55:02;96808.81;;;-1.38;100.00
36190;BME280;22232;50.914;13.858;2022-12-10T05:57:30;96823.69;;;-1.38;100.00
36190;BME280;22232;50.914;13.858;2022-12-10T05:59:57;96808.28;;;-1.33;100.00
36190;BME280;22232;50.914;13.858;2022-12-10T06:02:24;96813.53;;;-1.33;100.00
36190;BME280;22232;50.914;13.858;2022-12-10T06:04:52;96812.53;;;-1.32;100.00
36190;BME280;22232;50.914;13.858;2022-12-10T06:07:20;96814.50;;;-1.34;100.00
36190;BME280;22232;50.914;13.858;2022-12-10T06:09:47;96812.88;;;-1.35;100.00
36190;BME280;22232;50.914;13.858;2022-12-10T06:12:15;96819.03;;;-1.28;100.00
36190;BME280;22232;50.914;13.858;2022-12-10T06:14:42;96812.88;;;-1.35;100.00
36190;BME280;22232;50.914;13.858;2022-12-10T06:17:10;96811.00;;;-1.26;100.00
36190;BME280;22232;50.914;13.858;2022-12-10T06:19:38;96812.72;;;-1.33;100.00
36190;BME280;22232;50.914;13.858;2022-12-10T06:22:05;96810.81;;;-1.25;100.00
36190;BME280;22232;50.914;13.858;2022-12-10T06:24:33;96816.22;;;-1.26;100.00
36190;BME280;22232;50.914;13.858;2022-12-10T06:27:01;96821.09;;;-1.23;100.00
36190;BME280;22232;50.914;13.858;2022-12-10T06:29:28;96821.47;;;-1.26;100.00
36190;BME280;22232;50.914;13.858;2022-12-10T06:31:56;96819.13;;;-1.21;100.00
36190;BME280;22232;50.914;13.858;2022-12-10T06:34:23;96832.72;;;-1.26;100.00
36190;BME280;22232;50.914;13.858;2022-12-10T06:36:51;96834.72;;;-1.28;100.00
36190;BME280;22232;50.914;13.858;2022-12-10T06:39:18;96840.13;;;-1.29;100.00
36190;BME280;22232;50.914;13.858;2022-12-10T06:41:46;96833.09;;;-1.29;100.00
36190;BME280;22232;50.914;13.858;2022-12-10T06:44:14;96840.06;;;-1.21;100.00
36190;BME280;22232;50.914;13.858;2022-12-10T06:46:41;96843.63;;;-1.22;100.00
36190;BME280;22232;50.914;13.858;2022-12-10T06:49:09;96838.41;;;-1.22;100.00
36190;BME280;22232;50.914;13.858;2022-12-10T06:51:37;96850.88;;;-1.24;100.00
36190;BME280;22232;50.914;13.858;2022-12-10T06:54:05;96843.47;;;-1.21;100.00
36190;BME280;22232;50.914;13.858;2022-12-10T06:56:33;96848.72;;;-1.21;100.00
36190;BME280;22232;50.914;13.858;2022-12-10T06:59:04;96853.13;;;-1.21;100.00
36190;BME280;22232;50.914;13.858;2022-12-10T07:01:33;96856.19;;;-1.18;100.00
36190;BME280;22232;50.914;13.858;2022-12-10T07:04:01;96849.72;;;-1.22;100.00
36190;BME280;22232;50.914;13.858;2022-12-10T07:06:31;96855.84;;;-1.14;100.00
36190;BME280;22232;50.914;13.858;2022-12-10T07:08:59;96848.63;;;-1.12;100.00
36190;BME280;22232;50.914;13.858;2022-12-10T07:11:26;96853.88;;;-1.12;100.00
36190;BME280;22232;50.914;13.858;2022-12-10T07:13:54;96852.56;;;-1.17;100.00
36190;BME280;22232;50.914;13.858;2022-12-10T07:16:24;96856.47;;;-1.12;100.00
36190;BME280;22232;50.914;13.858;2022-12-10T07:18:57;96854.22;;;-1.16;100.00
36190;BME280;22232;50.914;13.858;2022-12-10T07:21:28;96849.00;;;-1.16;100.00
36190;BME280;22232;50.914;13.858;2022-12-10T07:23:59;96849.59;;;-1.13;100.00
36190;BME280;22232;50.914;13.858;2022-12-10T07:26:29;96848.97;;;-1.01;100.00
36190;BME280;22232;50.914;13.858;2022-12-10T07:29:02;96863.59;;;-0.92;100.00
36190;BME280;22232;50.914;13.858;2022-12-10T07:31:30;96856.56;;;-1.06;100.00
36190;BME280;22232;50.914;13.858;2022-12-10T07:33:58;96858.00;;;-1.03;100.00
36190;BME280;22232;50.914;13.858;2022-12-10T07:36:26;96852.41;;;-1.00;100.00
36190;BME280;22232;50.914;13.858;2022-12-10T07:38:54;96868.28;;;-1.02;100.00
36190;BME280;22232;50.914;13.858;2022-12-10T07:41:22;96863.84;;;-1.01;100.00
36190;BME280;22232;50.914;13.858;2022-12-10T07:43:50;96853.31;;;-1.08;100.00
36190;BME280;22232;50.914;13.858;2022-12-10T07:46:24;96857.28;;;-1.12;100.00
36190;BME280;22232;50.914;13.858;2022-12-10T07:48:53;96859.81;;;-1.19;100.00
36190;BME280;22232;50.914;13.858;2022-12-10T07:51:21;96860.78;;;-1.20;100.00
36190;BME280;22232;50.914;13.858;2022-12-10T07:53:53;96865.75;;;-1.25;100.00
36190;BME280;22232;50.914;13.858;2022-12-10T07:56:23;96870.63;;;-1.22;100.00
36190;BME280;22232;50.914;13.858;2022-12-10T07:58:52;96871.53;;;-1.14;100.00
36190;BME280;22232;50.914;13.858;2022-12-10T08:01:24;96865.94;;;-1.11;100.00
36190;BME280;22232;50.914;13.858;2022-12-10T08:03:54;96864.78;;;-1.09;100.00
36190;BME280;22232;50.914;13.858;2022-12-10T08:06:25;96870.81;;;-1.08;100.00
36190;BME280;22232;50.914;13.858;2022-12-10T08:08:53;96871.63;;;-1.08;100.00
36190;BME280;22232;50.914;13.858;2022-12-10T08:11:21;96871.53;;;-1.14;100.00
36190;BME280;22232;50.914;13.858;2022-12-10T08:13:50;96876.78;;;-1.14;100.00
36190;BME280;22232;50.914;13.858;2022-12-10T08:16:24;96876.84;;;-1.08;100.00
36190;BME280;22232;50.914;13.858;2022-12-10T08:18:55;96877.22;;;-1.11;100.00
36190;BME280;22232;50.914;13.858;2022-12-10T08:21:26;96884.06;;;-1.10;100.00
36190;BME280;22232;50.914;13.858;2022-12-10T08:23:55;96878.94;;;-1.03;100.00
36190;BME280;22232;50.914;13.858;2022-12-10T08:26:25;96873.88;;;-1.05;100.00
36190;BME280;22232;50.914;13.858;2022-12-10T08:28:54;96876.56;;;-1.13;100.00
36190;BME280;22232;50.914;13.858;2022-12-10T08:31:23;96872.19;;;-1.12;100.00
36190;BME280;22232;50.914;13.858;2022-12-10T08:33:51;96880.38;;;-1.16;100.00
36190;BME280;22232;50.914;13.858;2022-12-10T08:36:19;96876.31;;;-1.18;100.00
36190;BME280;22232;50.914;13.858;2022-12-10T08:38:47;96877.94;;;-1.17;100.00
36190;BME280;22232;50.914;13.858;2022-12-10T08:41:20;96885.25;;;-1.12;100.00
36190;BME280;22232;50.914;13.858;2022-12-10T08:43:51;96887.69;;;-1.11;100.00
36190;BME280;22232;50.914;13.858;2022-12-10T08:46:20;96885.59;;;-1.01;100.00
36190;BME280;22232;50.914;13.858;2022-12-10T08:48:48;96894.75;;;-0.97;100.00
36190;BME280;22232;50.914;13.858;2022-12-10T08:51:17;96901.31;;;-1.01;100.00
36190;BME280;22232;50.914;13.858;2022-12-10T08:53:45;96911.59;;;-0.99;100.00
36190;BME280;22232;50.914;13.858;2022-12-10T08:56:15;96907.38;;;-1.00;100.00
36190;BME280;22232;50.914;13.858;2022-12-10T08:58:42;96912.41;;;-0.99;100.00
36190;BME280;22232;50.914;13.858;2022-12-10T09:01:15;96912.63;;;-1.00;100.00
36190;BME280;22232;50.914;13.858;2022-12-10T09:03:43;96909.81;;;-0.99;100.00
36190;BME280;22232;50.914;13.858;2022-12-10T09:06:14;96903.19;;;-0.95;100.00
36190;BME280;22232;50.914;13.858;2022-12-10T09:08:42;96904.66;;;-0.77;100.00
36190;BME280;22232;50.914;13.858;2022-12-10T09:11:35;96908.81;;;-0.68;100.00
36190;BME280;22232;50.914;13.858;2022-12-10T09:14:02;96901.31;;;-0.56;100.00
36190;BME280;22232;50.914;13.858;2022-12-10T09:16:32;96908.44;;;-0.50;100.00
36190;BME280;22232;50.914;13.858;2022-12-10T09:19:00;96908.25;;;-0.49;100.00
36190;BME280;22232;50.914;13.858;2022-12-10T09:21:28;96899.41;;;-0.48;100.00
36190;BME280;22232;50.914;13.858;2022-12-10T09:23:58;96906.53;;;-0.41;100.00
36190;BME280;22232;50.914;13.858;2022-12-10T09:26:26;96906.97;;;-0.38;100.00
36190;BME280;22232;50.914;13.858;2022-12-10T09:28:54;96905.78;;;-0.35;100.00
36190;BME280;22232;50.914;13.858;2022-12-10T09:31:21;96911.47;;;-0.32;100.00
36190;BME280;22232;50.914;13.858;2022-12-10T09:33:51;96912.34;;;-0.25;100.00
36190;BME280;22232;50.914;13.858;2022-12-10T09:36:20;96914.81;;;-0.23;100.00
36190;BME280;22232;50.914;13.858;2022-12-10T09:38:48;96914.97;;;-0.25;100.00
36190;BME280;22232;50.914;13.858;2022-12-10T09:43:55;96906.56;;;-0.20;100.00
36190;BME280;22232;50.914;13.858;2022-12-10T09:49:02;96896.72;;;-0.18;100.00
36190;BME280;22232;50.914;13.858;2022-12-10T09:51:36;96900.16;;;-0.17;100.00
36190;BME280;22232;50.914;13.858;2022-12-10T09:54:24;96897.00;;;-0.28;100.00
36190;BME280;22232;50.914;13.858;2022-12-10T09:56:55;96897.41;;;-0.45;100.00
36190;BME280;22232;50.914;13.858;2022-12-10T09:59:32;96892.31;;;-0.32;100.00
36190;BME280;22232;50.914;13.858;2022-12-10T10:02:24;96899.53;;;-0.34;100.00
36190;BME280;22232;50.914;13.858;2022-12-10T10:07:36;96893.94;;;-0.31;100.00
36190;BME280;22232;50.914;13.858;2022-12-10T10:10:16;96897.00;;;-0.28;100.00
36190;BME280;22232;50.914;13.858;2022-12-10T10:12:47;96889.59;;;-0.24;100.00
36190;BME280;22232;50.914;13.858;2022-12-10T10:15:18;96879.88;;;-0.30;100.00
36190;BME280;22232;50.914;13.858;2022-12-10T10:17:51;96882.28;;;-0.29;100.00
36190;BME280;22232;50.914;13.858;2022-12-10T10:20:20;96881.28;;;-0.28;100.00
36190;BME280;22232;50.914;13.858;2022-12-10T10:22:48;96885.53;;;-0.27;100.00
36190;BME280;22232;50.914;13.858;2022-12-10T10:25:18;96876.88;;;-0.27;100.00
36190;BME280;22232;50.914;13.858;2022-12-10T10:27:45;96880.84;;;-0.31;100.00
36190;BME280;22232;50.914;13.858;2022-12-10T10:30:16;96876.59;;;-0.32;100.00
36190;BME280;22232;50.914;13.858;2022-12-10T10:32:51;96873.72;;;-0.37;100.00
36190;BME280;22232;50.914;13.858;2022-12-10T10:35:32;96877.19;;;-0.52;100.00
36190;BME280;22232;50.914;13.858;2022-12-10T10:38:06;96873.50;;;-0.57;100.00
36190;BME280;22232;50.914;13.858;2022-12-10T10:40:39;96868.63;;;-0.60;100.00
36190;BME280;22232;50.914;13.858;2022-12-10T10:43:15;96872.13;;;-0.53;100.00
36190;BME280;22232;50.914;13.858;2022-12-10T10:45:54;96877.44;;;-0.47;100.00
36190;BME280;22232;50.914;13.858;2022-12-10T10:48:26;96870.94;;;-0.36;100.00
36190;BME280;22232;50.914;13.858;2022-12-10T10:56:13;96878.59;;;-0.34;100.00
36190;BME280;22232;50.914;13.858;2022-12-10T11:01:25;96879.22;;;-0.32;100.00
36190;BME280;22232;50.914;13.858;2022-12-10T11:03:56;96871.84;;;-0.43;100.00
36190;BME280;22232;50.914;13.858;2022-12-10T11:06:25;96873.66;;;-0.44;100.00
36190;BME280;22232;50.914;13.858;2022-12-10T11:08:57;96870.31;;;-0.53;100.00
36190;BME280;22232;50.914;13.858;2022-12-10T11:14:35;96870.25;;;-0.59;100.00
36190;BME280;22232;50.914;13.858;2022-12-10T11:19:53;96868.03;;;-0.41;100.00
36190;BME280;22232;50.914;13.858;2022-12-10T11:22:28;96870.06;;;-0.58;100.00
36190;BME280;22232;50.914;13.858;2022-12-10T11:24:56;96872.44;;;-0.78;100.00
36190;BME280;22232;50.914;13.858;2022-12-10T11:27:49;96879.66;;;-0.80;100.00
36190;BME280;22232;50.914;13.858;2022-12-10T11:30:25;96886.69;;;-0.95;100.00
36190;BME280;22232;50.914;13.858;2022-12-10T11:40:55;96874.97;;;-0.99;100.00
36190;BME280;22232;50.914;13.858;2022-12-10T11:43:46;96872.44;;;-1.07;100.00
36190;BME280;22232;50.914;13.858;2022-12-10T11:52:09;96878.13;;;-1.04;100.00
36190;BME280;22232;50.914;13.858;2022-12-10T12:00:25;96887.16;;;-1.21;100.00
36190;BME280;22232;50.914;13.858;2022-12-10T12:03:09;96875.59;;;-1.12;100.00
36190;BME280;22232;50.914;13.858;2022-12-10T12:08:49;96878.59;;;-1.00;100.00
36190;BME280;22232;50.914;13.858;2022-12-10T12:11:55;96886.16;;;-1.05;100.00
36190;BME280;22232;50.914;13.858;2022-12-10T12:14:39;96878.22;;;-0.97;100.00
36190;BME280;22232;50.914;13.858;2022-12-10T12:17:35;96882.25;;;-0.95;100.00
36190;BME280;22232;50.914;13.858;2022-12-10T12:20:13;96882.44;;;-1.11;100.00
36190;BME280;22232;50.914;13.858;2022-12-10T12:22:44;96885.00;;;-1.03;100.00
36190;BME280;22232;50.914;13.858;2022-12-10T12:25:37;96870.75;;;-1.00;100.00
36190;BME280;22232;50.914;13.858;2022-12-10T12:28:14;96877.22;;;-0.96;100.00
36190;BME280;22232;50.914;13.858;2022-12-10T12:30:51;96874.78;;;-0.83;100.00
36190;BME280;22232;50.914;13.858;2022-12-10T12:34:15;96875.78;;;-0.84;100.00
36190;BME280;22232;50.914;13.858;2022-12-10T12:36:21;96869.53;;;-0.83;100.00
36190;BME280;22232;50.914;13.858;2022-12-10T12:39:01;96867.63;;;-0.74;100.00
36190;BME280;22232;50.914;13.858;2022-12-10T12:44:24;96872.78;;;-0.81;100.00
36190;BME280;22232;50.914;13.858;2022-12-10T12:49:51;96872.94;;;-0.67;100.00
36190;BME280;22232;50.914;13.858;2022-12-10T12:55:05;96864.13;;;-0.66;100.00
36190;BME280;22232;50.914;13.858;2022-12-10T12:57:49;96858.16;;;-0.75;100.00
36190;BME280;22232;50.914;13.858;2022-12-10T13:00:22;96862.03;;;-0.71;100.00
36190;BME280;22232;50.914;13.858;2022-12-10T13:05:47;96871.44;;;-0.77;100.00
36190;BME280;22232;50.914;13.858;2022-12-10T13:10:51;96878.31;;;-0.76;100.00
36190;BME280;22232;50.914;13.858;2022-12-10T13:15:56;96883.63;;;-0.84;100.00
36190;BME280;22232;50.914;13.858;2022-12-10T13:18:44;96882.81;;;-0.84;100.00
36190;BME280;22232;50.914;13.858;2022-12-10T13:21:30;96891.03;;;-0.87;100.00
36190;BME280;22232;50.914;13.858;2022-12-10T13:24:11;96892.13;;;-0.97;100.00
36190;BME280;22232;50.914;13.858;2022-12-10T13:27:01;96888.66;;;-0.82;100.00
36190;BME280;22232;50.914;13.858;2022-12-10T13:40:27;96902.94;;;-1.00;100.00
36190;BME280;22232;50.914;13.858;2022-12-10T13:48:55;96914.84;;;-1.12;100.00
36190;BME280;22232;50.914;13.858;2022-12-10T13:59:55;96906.19;;;-1.12;100.00
36190;BME280;22232;50.914;13.858;2022-12-10T14:08:28;96921.88;;;-1.27;100.00
36190;BME280;22232;50.914;13.858;2022-12-10T14:10:59;96926.91;;;-1.26;100.00
36190;BME280;22232;50.914;13.858;2022-12-10T14:13:42;96928.72;;;-1.26;100.00
36190;BME280;22232;50.914;13.858;2022-12-10T14:16:14;96932.13;;;-1.26;100.00
36190;BME280;22232;50.914;13.858;2022-12-10T14:18:43;96931.78;;;-1.23;100.00
36190;BME280;22232;50.914;13.858;2022-12-10T14:21:14;96939.19;;;-1.26;100.00
36190;BME280;22232;50.914;13.858;2022-12-10T14:23:47;96931.44;;;-1.20;100.00
36190;BME280;22232;50.914;13.858;2022-12-10T14:26:28;96932.03;;;-1.32;100.00
36190;BME280;22232;50.914;13.858;2022-12-10T14:28:57;96936.09;;;-1.30;100.00
36190;BME280;22232;50.914;13.858;2022-12-10T14:31:31;96937.38;;;-1.26;100.00
36190;BME280;22232;50.914;13.858;2022-12-10T14:34:07;96941.44;;;-1.23;100.00
36190;BME280;22232;50.914;13.858;2022-12-10T14:36:43;96949.13;;;-1.22;100.00
36190;BME280;22232;50.914;13.858;2022-12-10T14:41:50;96944.50;;;-1.20;100.00
36190;BME280;22232;50.914;13.858;2022-12-10T14:44:18;96938.72;;;-1.30;100.00
36190;BME280;22232;50.914;13.858;2022-12-10T14:46:47;96949.00;;;-1.28;100.00
36190;BME280;22232;50.914;13.858;2022-12-10T14:49:21;96945.63;;;-1.37;100.00
36190;BME280;22232;50.914;13.858;2022-12-10T14:51:50;96941.69;;;-1.33;100.00
36190;BME280;22232;50.914;13.858;2022-12-10T14:54:32;96946.81;;;-1.40;100.00